Time;durP1;ratioP1;P1;durP2;ratioP2;P2;SDS_P1;SDS_P2;PMS_P1;PMS_P2;Temp;Humidity;BMP_temperature;BMP_pressure;BME280_temperature;BME280_humidity;BME280_pressure;Samples;Min_cycle;Max_cycle;Signal;HPM_P1;HPM_P2
2022/12/18 00:02:18;;;;;;;;;;;;;;;27.80;53.67;97709.17;610484;232;64954;-67
2022/12/18 00:04:48;;;;;;;;;;;;;;;27.79;53.92;97720.23;610507;232;65105;-67
2022/12/18 00:07:15;;;;;;;;;;;;;;;27.77;54.15;97712.42;610457;232;67114;-67
2022/12/18 00:09:42;;;;;;;;;;;;;;;27.75;53.10;97708.45;610351;232;64912;-67
2022/12/18 00:12:10;;;;;;;;;;;;;;;27.74;53.91;97707.62;610512;232;63114;-67
2022/12/18 00:14:37;;;;;;;;;;;;;;;27.74;53.37;97720.33;610467;232;67248;-67
2022/12/18 00:17:05;;;;;;;;;;;;;;;27.73;52.20;97727.63;610239;232;67087;-67
2022/12/18 00:19:32;;;;;;;;;;;;;;;27.73;52.87;97737.64;610523;232;65070;-67
2022/12/18 00:22:00;;;;;;;;;;;;;;;27.71;54.64;97737.13;610493;232;67139;-67
2022/12/18 00:24:27;;;;;;;;;;;;;;;27.70;50.90;97736.33;610516;232;66791;-67
2022/12/18 00:26:55;;;;;;;;;;;;;;;27.69;52.30;97732.02;610507;232;65081;-67
2022/12/18 00:29:22;;;;;;;;;;;;;;;27.68;53.93;97738.52;609141;232;64904;-67
2022/12/18 00:31:50;;;;;;;;;;;;;;;27.66;53.21;97733.44;608852;233;66160;-67
2022/12/18 00:34:17;;;;;;;;;;;;;;;27.66;54.52;97743.41;608876;233;65002;-67
2022/12/18 00:36:45;;;;;;;;;;;;;;;27.66;54.59;97746.11;608860;233;64778;-67
2022/12/18 00:39:12;;;;;;;;;;;;;;;27.64;53.62;97751.83;608887;233;64934;-67
2022/12/18 00:44:25;;;;;;;;;;;;;;;27.61;54.26;97748.90;608916;233;65822;-67
2022/12/18 00:46:53;;;;;;;;;;;;;;;27.60;52.21;97758.11;608858;233;65004;-67
2022/12/18 00:49:21;;;;;;;;;;;;;;;27.61;55.33;97762.39;608872;233;62736;-67
2022/12/18 00:51:49;;;;;;;;;;;;;;;27.59;52.83;97770.81;608869;233;64317;-67
2022/12/18 00:54:17;;;;;;;;;;;;;;;27.57;53.32;97762.20;608827;233;67034;-67
2022/12/18 00:56:44;;;;;;;;;;;;;;;27.57;54.16;97758.70;608878;233;63883;-67
2022/12/18 00:59:12;;;;;;;;;;;;;;;27.56;54.60;97765.20;608860;233;67466;-67
2022/12/18 01:01:39;;;;;;;;;;;;;;;27.53;54.11;97769.30;608848;233;67027;-67
2022/12/18 01:04:07;;;;;;;;;;;;;;;27.53;52.37;97772.00;608834;233;65033;-67
2022/12/18 01:06:34;;;;;;;;;;;;;;;27.52;54.62;97767.68;608860;233;67198;-67
2022/12/18 01:09:02;;;;;;;;;;;;;;;27.53;55.65;97773.88;608857;233;64970;-67
2022/12/18 01:11:30;;;;;;;;;;;;;;;27.50;53.57;97775.30;608844;233;62795;-67
2022/12/18 01:13:57;;;;;;;;;;;;;;;27.51;55.03;97776.09;608847;233;67225;-67
2022/12/18 01:16:27;;;;;;;;;;;;;;;27.48;54.42;97772.08;608867;233;66921;-68
2022/12/18 01:18:55;;;;;;;;;;;;;;;27.47;52.53;97769.66;608851;233;65866;-67
2022/12/18 01:21:23;;;;;;;;;;;;;;;27.47;54.88;97775.06;608831;233;65072;-68
2022/12/18 01:23:54;;;;;;;;;;;;;;;27.44;54.34;97771.05;608869;233;66917;-68
2022/12/18 01:26:24;;;;;;;;;;;;;;;27.44;54.18;97781.85;608864;233;63707;-68
2022/12/18 01:28:51;;;;;;;;;;;;;;;27.42;54.98;97774.06;608810;232;67314;-68
2022/12/18 01:31:21;;;;;;;;;;;;;;;27.41;55.32;97772.44;608862;233;66948;-67
2022/12/18 01:33:49;;;;;;;;;;;;;;;27.41;53.53;97777.05;608891;233;65106;-67
2022/12/18 01:36:18;;;;;;;;;;;;;;;27.41;54.22;97777.05;608902;233;67194;-68
2022/12/18 01:38:46;;;;;;;;;;;;;;;27.41;56.04;97777.05;608871;233;65313;-67
2022/12/18 01:41:13;;;;;;;;;;;;;;;27.38;55.43;97774.94;608851;233;63023;-67
2022/12/18 01:43:42;;;;;;;;;;;;;;;27.37;54.22;97779.55;608856;233;64728;-67
2022/12/18 01:46:10;;;;;;;;;;;;;;;27.36;54.53;97786.02;608811;233;67504;-68
2022/12/18 01:48:39;;;;;;;;;;;;;;;27.36;54.45;97777.13;608841;233;65136;-68
2022/12/18 01:51:08;;;;;;;;;;;;;;;27.34;54.17;97779.34;608845;233;67234;-68
2022/12/18 01:53:36;;;;;;;;;;;;;;;27.35;55.23;97775.53;608841;233;64976;-68
2022/12/18 01:56:04;;;;;;;;;;;;;;;27.33;54.57;97775.02;608846;233;63487;-68
2022/12/18 01:58:40;;;;;;;;;;;;;;;27.32;56.14;97785.02;608843;233;67125;-68
2022/12/18 02:01:08;;;;;;;;;;;;;;;27.32;54.20;97795.02;608856;233;67420;-68
2022/12/18 02:03:35;;;;;;;;;;;;;;;27.30;55.22;97797.20;608883;233;64946;-67
2022/12/18 02:06:10;;;;;;;;;;;;;;;27.30;55.12;97794.50;608839;233;66770;-67
2022/12/18 02:08:42;;;;;;;;;;;;;;;27.29;56.03;97790.20;608846;233;67563;-68
2022/12/18 02:11:23;;;;;;;;;;;;;;;27.27;54.50;97795.09;608719;232;63831;-68
2022/12/18 02:14:01;;;;;;;;;;;;;;;27.27;54.75;97803.19;608607;232;67593;-68
2022/12/18 02:16:33;;;;;;;;;;;;;;;27.25;54.97;97797.27;608910;233;66922;-68
2022/12/18 02:19:02;;;;;;;;;;;;;;;27.24;54.02;97804.57;608886;233;62914;-68
2022/12/18 02:21:41;;;;;;;;;;;;;;;27.22;54.98;97802.16;608861;233;67387;-67
2022/12/18 02:24:10;;;;;;;;;;;;;;;27.21;53.97;97800.56;608824;233;67018;-68
2022/12/18 02:26:39;;;;;;;;;;;;;;;27.21;55.96;97805.95;608592;232;62726;-68
2022/12/18 02:29:08;;;;;;;;;;;;;;;27.20;55.31;97807.06;608820;232;64888;-67
2022/12/18 02:31:37;;;;;;;;;;;;;;;27.20;54.88;97815.16;608893;233;67424;-67
2022/12/18 02:34:06;;;;;;;;;;;;;;;27.18;56.08;97813.84;608774;233;63212;-67
2022/12/18 02:36:37;;;;;;;;;;;;;;;27.17;56.79;97810.34;608794;232;45827;-68
2022/12/18 02:39:07;;;;;;;;;;;;;;;27.16;56.19;97819.52;608836;233;67603;-67
2022/12/18 02:41:36;;;;;;;;;;;;;;;27.15;54.86;97822.50;603917;233;66475;-68
2022/12/18 02:44:05;;;;;;;;;;;;;;;27.14;56.63;97824.36;608855;233;67411;-68
2022/12/18 02:46:34;;;;;;;;;;;;;;;27.14;55.71;97816.27;608837;232;67326;-68
2022/12/18 02:49:11;;;;;;;;;;;;;;;27.11;55.74;97816.06;608755;232;43988;-68
2022/12/18 02:51:53;;;;;;;;;;;;;;;27.11;54.68;97829.55;608025;233;67212;-67
2022/12/18 02:54:22;;;;;;;;;;;;;;;27.11;55.63;97827.66;608887;233;66879;-68
2022/12/18 02:56:54;;;;;;;;;;;;;;;27.09;54.14;97823.64;608153;233;64897;-68
2022/12/18 02:59:29;;;;;;;;;;;;;;;27.09;54.76;97835.25;608828;233;64274;-68
2022/12/18 03:01:59;;;;;;;;;;;;;;;27.08;54.79;97840.93;608658;232;67382;-68
2022/12/18 03:04:44;;;;;;;;;;;;;;;27.07;56.17;97837.44;608832;233;64973;-68
2022/12/18 03:07:13;;;;;;;;;;;;;;;27.06;55.51;97841.20;593649;239;64801;-68
2022/12/18 03:09:42;;;;;;;;;;;;;;;27.05;54.57;97852.30;604006;232;66927;-67
2022/12/18 03:12:23;;;;;;;;;;;;;;;27.03;54.43;97852.58;608847;233;65691;-67
2022/12/18 03:14:52;;;;;;;;;;;;;;;27.04;55.51;97865.00;608864;233;64209;-67
2022/12/18 03:17:21;;;;;;;;;;;;;;;27.03;56.54;97860.67;608817;232;64908;-67
2022/12/18 03:19:50;;;;;;;;;;;;;;;27.00;54.76;97863.95;608850;233;62893;-67
2022/12/18 03:22:18;;;;;;;;;;;;;;;27.01;54.98;97868.28;608807;233;67536;-67
2022/12/18 03:24:49;;;;;;;;;;;;;;;27.00;56.06;97864.75;608801;232;44250;-67
2022/12/18 03:27:18;;;;;;;;;;;;;;;26.98;56.25;97869.66;608793;233;65156;-67
2022/12/18 03:29:50;;;;;;;;;;;;;;;26.98;56.19;97872.36;608808;232;67478;-67
2022/12/18 03:32:21;;;;;;;;;;;;;;;26.98;56.02;97874.22;608268;233;45769;-67
2022/12/18 03:34:50;;;;;;;;;;;;;;;26.96;54.72;97874.53;608731;232;62997;-67
2022/12/18 03:37:18;;;;;;;;;;;;;;;26.96;56.23;97887.22;608855;233;67313;-68
2022/12/18 03:39:45;;;;;;;;;;;;;;;26.94;53.56;97881.30;608849;233;67291;-67
2022/12/18 03:42:30;;;;;;;;;;;;;;;26.93;56.55;97894.00;608886;233;64826;-68
2022/12/18 03:45:09;;;;;;;;;;;;;;;26.93;55.41;97898.59;608804;232;45320;-67
2022/12/18 03:47:39;;;;;;;;;;;;;;;26.92;54.90;97899.66;608946;233;64646;-67
2022/12/18 03:50:12;;;;;;;;;;;;;;;26.91;53.44;97915.05;607783;233;65772;-67
2022/12/18 03:52:48;;;;;;;;;;;;;;;26.90;53.98;97912.63;608876;233;67637;-67
2022/12/18 03:55:17;;;;;;;;;;;;;;;26.90;54.90;97924.25;608829;233;68482;-67
2022/12/18 03:57:46;;;;;;;;;;;;;;;26.89;55.14;97927.22;608870;233;65003;-67
2022/12/18 04:00:15;;;;;;;;;;;;;;;26.87;54.42;97935.58;608944;233;64794;-67
2022/12/18 04:02:45;;;;;;;;;;;;;;;26.87;54.70;97940.17;608667;232;45555;-68
2022/12/18 04:05:15;;;;;;;;;;;;;;;26.86;54.85;97936.69;608921;233;65821;-68
2022/12/18 04:07:44;;;;;;;;;;;;;;;26.85;53.57;97942.37;608909;233;67643;-68
2022/12/18 04:10:12;;;;;;;;;;;;;;;26.85;56.05;97945.88;608873;233;66770;-68
2022/12/18 04:12:41;;;;;;;;;;;;;;;26.84;54.90;97948.84;608901;233;65231;-68
2022/12/18 04:15:11;;;;;;;;;;;;;;;26.83;56.87;97941.86;608928;233;67869;-68
2022/12/18 04:17:39;;;;;;;;;;;;;;;26.82;54.81;97949.15;608850;233;67434;-68
2022/12/18 04:20:08;;;;;;;;;;;;;;;26.81;56.47;97952.12;608903;233;65593;-68
2022/12/18 04:22:37;;;;;;;;;;;;;;;26.79;56.18;97960.48;608895;233;64833;-68
2022/12/18 04:25:05;;;;;;;;;;;;;;;26.79;55.69;97964.01;608875;233;67009;-68
2022/12/18 04:27:34;;;;;;;;;;;;;;;26.78;55.01;97970.47;608625;232;44155;-68
2022/12/18 04:30:03;;;;;;;;;;;;;;;26.77;55.57;97970.77;610509;232;65134;-68
2022/12/18 04:32:31;;;;;;;;;;;;;;;26.77;55.73;97962.69;610555;232;67722;-68
2022/12/18 04:35:00;;;;;;;;;;;;;;;26.75;52.16;97959.46;610549;232;65870;-68
2022/12/18 04:37:28;;;;;;;;;;;;;;;26.74;54.88;97976.74;610503;232;67542;-68
2022/12/18 04:39:55;;;;;;;;;;;;;;;26.73;55.13;97967.82;610552;232;64909;-67
2022/12/18 04:42:24;;;;;;;;;;;;;;;26.73;55.67;97978.61;610415;232;42355;-67
2022/12/18 04:44:52;;;;;;;;;;;;;;;26.72;55.84;97982.41;610525;232;65090;-67
2022/12/18 04:47:19;;;;;;;;;;;;;;;26.73;55.78;97996.69;610552;232;67038;-67
2022/12/18 04:49:47;;;;;;;;;;;;;;;26.70;55.98;97995.36;610475;232;65032;-67
2022/12/18 04:52:14;;;;;;;;;;;;;;;26.70;54.75;97999.95;610503;232;68056;-67
2022/12/18 04:54:42;;;;;;;;;;;;;;;26.69;57.57;97996.46;610547;232;67051;-67
2022/12/18 04:57:09;;;;;;;;;;;;;;;26.67;52.26;97995.94;610498;232;65144;-67
2022/12/18 04:59:37;;;;;;;;;;;;;;;26.66;54.79;97999.73;610503;232;67226;-67
2022/12/18 05:02:04;;;;;;;;;;;;;;;26.66;55.93;98010.52;610501;232;65645;-67
2022/12/18 05:04:32;;;;;;;;;;;;;;;26.64;55.05;98009.98;610458;232;65060;-67
2022/12/18 05:06:59;;;;;;;;;;;;;;;26.64;56.90;98012.69;610509;232;67264;-66
2022/12/18 05:09:26;;;;;;;;;;;;;;;26.64;55.21;98022.67;610503;232;67066;-66
2022/12/18 05:11:54;;;;;;;;;;;;;;;26.62;55.32;98017.55;610481;232;65116;-66
2022/12/18 05:14:21;;;;;;;;;;;;;;;26.62;55.17;98022.14;610501;232;67260;-66
2022/12/18 05:16:49;;;;;;;;;;;;;;;26.62;56.27;98020.25;610446;232;64926;-66
2022/12/18 05:19:16;;;;;;;;;;;;;;;26.60;55.65;98025.14;610543;232;63037;-66
2022/12/18 05:21:44;;;;;;;;;;;;;;;26.59;55.20;98028.10;610470;232;67222;-66
2022/12/18 05:24:11;;;;;;;;;;;;;;;26.58;56.22;98030.00;610529;232;64777;-66
2022/12/18 05:26:39;;;;;;;;;;;;;;;26.57;57.07;98025.67;610499;232;62950;-66
2022/12/18 05:29:06;;;;;;;;;;;;;;;26.56;56.04;98032.97;609313;232;64927;-66
2022/12/18 05:31:34;;;;;;;;;;;;;;;26.56;56.65;98040.25;608857;233;67306;-67
2022/12/18 05:34:01;;;;;;;;;;;;;;;26.54;53.92;98039.73;608840;233;62650;-67
2022/12/18 05:36:29;;;;;;;;;;;;;;;26.54;55.54;98045.12;608855;233;64621;-67
2022/12/18 05:38:56;;;;;;;;;;;;;;;26.54;55.63;98048.61;608833;233;64837;-67
2022/12/18 05:41:24;;;;;;;;;;;;;;;26.52;54.72;98053.50;608806;233;64949;-67
2022/12/18 05:43:52;;;;;;;;;;;;;;;26.51;54.25;98059.16;608876;233;67320;-67
2022/12/18 05:46:19;;;;;;;;;;;;;;;26.50;54.24;98055.64;608832;233;66811;-67
2022/12/18 05:48:48;;;;;;;;;;;;;;;26.50;55.35;98060.23;608837;233;62656;-66
2022/12/18 05:51:16;;;;;;;;;;;;;;;26.49;55.45;98072.91;608854;233;66922;-67
2022/12/18 05:53:44;;;;;;;;;;;;;;;26.47;54.39;98066.98;608851;233;64980;-68
2022/12/18 05:56:14;;;;;;;;;;;;;;;26.47;56.15;98071.58;608828;233;65125;-68
2022/12/18 05:58:42;;;;;;;;;;;;;;;26.47;56.17;98071.58;608696;233;67420;-68
2022/12/18 06:01:11;;;;;;;;;;;;;;;26.46;57.32;98078.03;608843;233;67018;-68
2022/12/18 06:03:39;;;;;;;;;;;;;;;26.46;55.97;98083.43;608556;232;65144;-68
2022/12/18 06:06:23;;;;;;;;;;;;;;;26.45;56.58;98084.52;608847;233;67208;-68
2022/12/18 06:08:51;;;;;;;;;;;;;;;26.44;56.89;98085.63;608593;232;64824;-67
2022/12/18 06:11:20;;;;;;;;;;;;;;;26.42;55.86;98087.78;608868;233;62915;-67
2022/12/18 06:13:49;;;;;;;;;;;;;;;26.41;56.41;98095.07;608881;233;67281;-68
2022/12/18 06:16:16;;;;;;;;;;;;;;;26.41;55.90;98099.63;608827;233;65721;-68
2022/12/18 06:18:44;;;;;;;;;;;;;;;26.39;56.57;98108.02;608856;233;62910;-68
2022/12/18 06:21:11;;;;;;;;;;;;;;;26.39;54.91;98109.91;608813;233;65141;-67
2022/12/18 06:23:38;;;;;;;;;;;;;;;26.38;56.25;98111.77;608814;233;64911;-68
2022/12/18 06:26:07;;;;;;;;;;;;;;;26.38;55.76;98121.76;608901;233;63816;-68
2022/12/18 06:28:35;;;;;;;;;;;;;;;26.37;56.76;98128.24;608797;232;67240;-68
2022/12/18 06:31:03;;;;;;;;;;;;;;;26.35;56.39;98137.42;608848;233;67035;-68
2022/12/18 06:33:31;;;;;;;;;;;;;;;26.35;56.83;98136.59;608831;233;65056;-68
2022/12/18 06:36:03;;;;;;;;;;;;;;;26.34;56.39;98137.69;608813;233;67253;-68
2022/12/18 06:38:32;;;;;;;;;;;;;;;26.34;57.16;98143.88;608912;233;66903;-68
2022/12/18 06:40:59;;;;;;;;;;;;;;;26.33;56.81;98141.48;608829;233;64655;-68
2022/12/18 06:43:27;;;;;;;;;;;;;;;26.32;58.21;98143.34;608854;233;67259;-68
2022/12/18 06:45:56;;;;;;;;;;;;;;;26.31;56.50;98141.75;608835;233;67314;-68
2022/12/18 06:48:26;;;;;;;;;;;;;;;26.30;57.38;98145.53;608441;232;65248;-67
2022/12/18 06:50:54;;;;;;;;;;;;;;;26.29;54.94;98156.58;608579;233;66987;-68
2022/12/18 06:53:21;;;;;;;;;;;;;;;26.27;54.92;98147.95;608803;233;64916;-68
2022/12/18 06:55:49;;;;;;;;;;;;;;;26.26;56.34;98147.16;608630;233;63006;-68
2022/12/18 06:58:16;;;;;;;;;;;;;;;26.27;56.54;98146.09;608789;233;64808;-68
2022/12/18 07:00:44;;;;;;;;;;;;;;;26.26;57.07;98157.14;608653;233;64706;-68
2022/12/18 07:03:11;;;;;;;;;;;;;;;26.25;56.81;98156.34;608761;233;62917;-68
2022/12/18 07:05:42;;;;;;;;;;;;;;;26.23;55.73;98155.00;608922;233;64468;-68
2022/12/18 07:08:09;;;;;;;;;;;;;;;26.23;57.60;98149.61;608875;233;67035;-68
2022/12/18 07:10:43;;;;;;;;;;;;;;;26.20;54.80;98156.36;608821;233;65067;-68
2022/12/18 07:13:11;;;;;;;;;;;;;;;26.21;58.27;98163.35;608864;233;67291;-68
2022/12/18 07:15:38;;;;;;;;;;;;;;;26.18;53.50;98165.80;608823;233;67060;-68
2022/12/18 07:18:05;;;;;;;;;;;;;;;26.19;56.39;98162.84;608924;233;65000;-68
2022/12/18 07:20:33;;;;;;;;;;;;;;;26.20;56.74;98169.84;608859;233;66909;-68
2022/12/18 07:23:02;;;;;;;;;;;;;;;26.19;57.49;98170.92;608877;233;66679;-68
2022/12/18 07:25:30;;;;;;;;;;;;;;;26.18;57.16;98166.60;608705;233;64996;-67
2022/12/18 07:27:57;;;;;;;;;;;;;;;26.17;56.33;98170.39;608814;232;67180;-68
2022/12/18 07:30:25;;;;;;;;;;;;;;;26.17;56.24;98175.78;608824;233;67002;-68
2022/12/18 07:32:52;;;;;;;;;;;;;;;26.16;56.06;98171.45;608827;233;62497;-67
2022/12/18 07:35:20;;;;;;;;;;;;;;;26.15;57.18;98177.94;608789;233;65076;-68
2022/12/18 07:37:47;;;;;;;;;;;;;;;26.15;57.39;98180.63;608832;233;67162;-68
2022/12/18 07:40:15;;;;;;;;;;;;;;;26.13;55.51;98180.89;607971;233;62994;-68
2022/12/18 07:42:42;;;;;;;;;;;;;;;26.15;56.16;98182.53;608859;233;64928;-68
2022/12/18 07:45:10;;;;;;;;;;;;;;;26.13;56.12;98177.40;608827;233;64857;-68
2022/12/18 07:47:38;;;;;;;;;;;;;;;26.13;57.06;98174.70;608831;233;65108;-68
2022/12/18 07:50:06;;;;;;;;;;;;;;;26.12;56.16;98178.49;608730;233;64936;-67
2022/12/18 07:52:33;;;;;;;;;;;;;;;26.11;56.96;98174.20;603923;233;66281;-68
2022/12/18 07:55:01;;;;;;;;;;;;;;;26.10;56.56;98181.45;598291;233;66623;-68
2022/12/18 07:57:28;;;;;;;;;;;;;;;26.10;57.13;98181.45;608430;233;67121;-68
2022/12/18 07:59:56;;;;;;;;;;;;;;;26.09;57.19;98173.66;608799;233;67504;-68
2022/12/18 08:02:23;;;;;;;;;;;;;;;26.09;57.55;98187.13;608587;233;63112;-68
2022/12/18 08:04:51;;;;;;;;;;;;;;;26.08;56.53;98189.02;608029;233;67220;-68
2022/12/18 08:07:18;;;;;;;;;;;;;;;26.08;57.20;98198.97;608729;233;66882;-68
2022/12/18 08:09:46;;;;;;;;;;;;;;;26.09;58.51;98193.31;608846;233;65048;-68
2022/12/18 08:12:13;;;;;;;;;;;;;;;26.08;56.89;98198.97;608811;233;65105;-67
2022/12/18 08:14:40;;;;;;;;;;;;;;;26.08;58.09;98198.97;608719;233;67140;-67
2022/12/18 08:17:08;;;;;;;;;;;;;;;26.07;58.72;98202.76;608836;233;65116;-67
2022/12/18 08:19:35;;;;;;;;;;;;;;;26.07;56.82;98208.14;608808;233;66951;-67
2022/12/18 08:22:03;;;;;;;;;;;;;;;26.07;57.59;98213.53;608886;233;66948;-67
2022/12/18 08:24:30;;;;;;;;;;;;;;;26.07;58.41;98208.14;608776;233;62798;-67
2022/12/18 08:26:58;;;;;;;;;;;;;;;26.07;58.02;98213.53;608822;233;67409;-67
2022/12/18 08:29:25;;;;;;;;;;;;;;;26.06;58.03;98218.13;610204;232;67120;-67
2022/12/18 08:31:53;;;;;;;;;;;;;;;26.05;56.67;98219.18;610464;232;62958;-67
2022/12/18 08:34:20;;;;;;;;;;;;;;;26.06;57.60;98220.81;610518;232;67261;-67
2022/12/18 08:36:48;;;;;;;;;;;;;;;26.05;58.63;98221.88;610478;232;67041;-67
2022/12/18 08:39:15;;;;;;;;;;;;;;;26.06;58.88;98233.48;610432;232;64884;-67
2022/12/18 08:44:36;;;;;;;;;;;;;;;26.06;59.83;98228.09;610521;232;67013;-67
2022/12/18 08:46:57;;;;;;;;;;;;;;;26.06;59.02;98233.48;608336;232;62372;-67
2022/12/18 08:49:25;;;;;;;;;;;;;;;26.04;56.74;98238.33;610445;232;67250;-68
2022/12/18 08:51:54;;;;;;;;;;;;;;;26.05;59.62;98237.23;610444;232;64757;-68
2022/12/18 08:54:21;;;;;;;;;;;;;;;26.05;60.09;98237.23;610346;232;62757;-68
2022/12/18 08:56:49;;;;;;;;;;;;;;;26.05;59.83;98238.03;611231;232;65020;-68
2022/12/18 08:59:17;;;;;;;;;;;;;;;26.05;57.43;98248.02;611243;232;67027;-68
2022/12/18 09:01:45;;;;;;;;;;;;;;;26.07;59.27;98245.86;610419;232;65073;-68
2022/12/18 09:04:13;;;;;;;;;;;;;;;26.07;59.64;98251.25;611257;232;67216;-68
2022/12/18 09:06:43;;;;;;;;;;;;;;;26.06;59.33;98247.75;611248;232;66828;-68
2022/12/18 09:09:11;;;;;;;;;;;;;;;26.09;59.16;98254.48;606438;232;65073;-68
2022/12/18 09:11:38;;;;;;;;;;;;;;;26.09;60.30;98260.67;611257;232;67239;-68
2022/12/18 09:14:06;;;;;;;;;;;;;;;26.08;59.81;98250.16;611275;232;67209;-68
2022/12/18 09:16:34;;;;;;;;;;;;;;;26.08;60.03;98263.63;611266;232;65007;-68
2022/12/18 09:19:05;;;;;;;;;;;;;;;26.08;57.06;98258.23;611236;231;43383;-68
2022/12/18 09:21:34;;;;;;;;;;;;;;;26.11;60.00;98255.02;611234;232;67045;-68
2022/12/18 09:24:05;;;;;;;;;;;;;;;26.10;58.99;98251.50;611252;232;65095;-68
2022/12/18 09:26:32;;;;;;;;;;;;;;;26.11;58.40;98257.72;611255;232;67273;-68
2022/12/18 09:29:00;;;;;;;;;;;;;;;26.11;58.57;98263.10;611824;232;67044;-68
2022/12/18 09:31:27;;;;;;;;;;;;;;;26.13;60.64;98269.00;612175;232;65049;-68
2022/12/18 09:33:56;;;;;;;;;;;;;;;26.12;59.73;98276.28;612127;232;66970;-68
2022/12/18 09:36:24;;;;;;;;;;;;;;;26.12;58.56;98268.20;612149;232;67128;-68
2022/12/18 09:38:51;;;;;;;;;;;;;;;26.15;59.69;98268.73;612099;232;65098;-67
2022/12/18 09:41:20;;;;;;;;;;;;;;;26.15;58.86;98258.77;612196;232;65195;-66
2022/12/18 09:43:52;;;;;;;;;;;;;;;26.15;58.77;98269.54;611842;231;67043;-67
2022/12/18 09:46:21;;;;;;;;;;;;;;;26.17;58.39;98261.20;611903;231;65024;-66
2022/12/18 09:48:50;;;;;;;;;;;;;;;26.19;59.06;98276.01;612118;232;64880;-66
2022/12/18 09:51:19;;;;;;;;;;;;;;;26.19;57.34;98265.23;612123;232;64924;-66
2022/12/18 09:53:48;;;;;;;;;;;;;;;26.20;58.88;98272.22;612053;231;62750;-66
2022/12/18 09:56:17;;;;;;;;;;;;;;;26.20;58.56;98264.14;612092;232;67264;-66
2022/12/18 09:58:49;;;;;;;;;;;;;;;26.21;58.43;98262.24;612128;232;67071;-67
2022/12/18 10:01:17;;;;;;;;;;;;;;;26.22;58.09;98269.23;612110;232;63013;-69
2022/12/18 10:03:46;;;;;;;;;;;;;;;26.22;56.41;98264.68;612035;232;67916;-68
2022/12/18 10:06:17;;;;;;;;;;;;;;;26.23;57.13;98268.97;612101;232;67052;-68
2022/12/18 10:08:53;;;;;;;;;;;;;;;26.24;57.26;98264.38;611817;232;62944;-68
2022/12/18 10:11:28;;;;;;;;;;;;;;;26.25;58.57;98269.52;609352;232;67089;-68
2022/12/18 10:13:57;;;;;;;;;;;;;;;26.25;55.40;98266.82;611954;231;67041;-68
2022/12/18 10:16:26;;;;;;;;;;;;;;;26.27;58.54;98269.22;612059;231;65163;-68
2022/12/18 10:19:07;;;;;;;;;;;;;;;26.28;55.19;98255.48;611871;232;68416;-69
2022/12/18 10:21:41;;;;;;;;;;;;;;;26.28;56.78;98263.57;611931;231;66775;-68
2022/12/18 10:24:10;;;;;;;;;;;;;;;26.29;55.64;98267.06;612060;231;65162;-68
2022/12/18 10:26:38;;;;;;;;;;;;;;;26.30;55.88;98266.80;611888;231;67230;-68
2022/12/18 10:29:10;;;;;;;;;;;;;;;26.30;55.48;98258.72;612089;232;67400;-68
2022/12/18 10:31:38;;;;;;;;;;;;;;;26.31;56.04;98260.32;611993;232;65054;-68
2022/12/18 10:34:15;;;;;;;;;;;;;;;26.31;55.13;98254.93;612113;232;67330;-68
2022/12/18 10:36:43;;;;;;;;;;;;;;;26.33;57.43;98260.86;612115;232;65146;-68
2022/12/18 10:39:17;;;;;;;;;;;;;;;26.32;55.81;98259.23;612078;230;65082;-69
2022/12/18 10:41:45;;;;;;;;;;;;;;;26.33;54.18;98262.75;611890;231;67284;-69
2022/12/18 10:44:14;;;;;;;;;;;;;;;26.34;55.62;98262.45;612111;232;65246;-69
2022/12/18 10:46:41;;;;;;;;;;;;;;;26.35;57.09;98256.00;611463;231;65105;-69
2022/12/18 10:49:10;;;;;;;;;;;;;;;26.36;54.83;98264.89;612107;232;66881;-69
2022/12/18 10:51:38;;;;;;;;;;;;;;;26.35;54.11;98257.87;611515;232;64970;-69
2022/12/18 10:54:18;;;;;;;;;;;;;;;26.35;55.44;98257.87;612085;232;65080;-69
2022/12/18 10:56:46;;;;;;;;;;;;;;;26.35;53.74;98261.39;612106;232;67553;-67
2022/12/18 10:59:15;;;;;;;;;;;;;;;26.37;55.25;98258.41;612095;231;64856;-67
2022/12/18 11:01:54;;;;;;;;;;;;;;;26.37;53.98;98254.91;608168;232;64944;-68
2022/12/18 11:04:23;;;;;;;;;;;;;;;26.38;56.40;98264.59;612143;232;67278;-67
2022/12/18 11:06:55;;;;;;;;;;;;;;;26.38;54.21;98259.20;612160;232;64953;-68
2022/12/18 11:09:23;;;;;;;;;;;;;;;26.38;53.42;98260.01;612156;232;64999;-68
2022/12/18 11:11:56;;;;;;;;;;;;;;;26.38;53.57;98257.31;612137;232;66948;-67
2022/12/18 11:14:24;;;;;;;;;;;;;;;26.38;53.19;98264.59;612080;232;66677;-67
2022/12/18 11:16:53;;;;;;;;;;;;;;;26.38;53.84;98260.01;612115;232;65113;-68
2022/12/18 11:19:22;;;;;;;;;;;;;;;26.38;53.79;98259.20;611965;232;66936;-67
2022/12/18 11:21:50;;;;;;;;;;;;;;;26.39;53.11;98255.45;612221;232;64757;-67
2022/12/18 11:24:34;;;;;;;;;;;;;;;26.38;53.47;98256.52;612109;232;44000;-67
2022/12/18 11:27:03;;;;;;;;;;;;;;;26.38;53.65;98261.91;612127;232;66955;-68
2022/12/18 11:29:35;;;;;;;;;;;;;;;26.38;53.65;98261.91;612022;232;64635;-68
2022/12/18 11:32:20;;;;;;;;;;;;;;;26.38;54.17;98259.20;611763;231;62776;-68
2022/12/18 11:34:49;;;;;;;;;;;;;;;26.38;53.78;98257.31;612105;232;64642;-68
2022/12/18 11:37:22;;;;;;;;;;;;;;;26.38;54.48;98265.40;612195;232;66799;-68
2022/12/18 11:39:51;;;;;;;;;;;;;;;26.38;55.65;98256.52;611733;232;65155;-68
2022/12/18 11:42:26;;;;;;;;;;;;;;;26.39;55.77;98258.95;611804;231;65010;-68
2022/12/18 11:44:58;;;;;;;;;;;;;;;26.36;53.61;98254.11;603606;231;65238;-68
2022/12/18 11:47:28;;;;;;;;;;;;;;;26.38;53.69;98259.20;611662;232;65124;-68
2022/12/18 11:49:56;;;;;;;;;;;;;;;26.37;53.04;98257.61;610362;232;67198;-68
2022/12/18 11:52:26;;;;;;;;;;;;;;;26.37;55.67;98268.39;612164;232;67056;-65
2022/12/18 11:54:55;;;;;;;;;;;;;;;26.37;53.43;98263.00;611676;231;64959;-69
2022/12/18 11:57:36;;;;;;;;;;;;;;;26.35;53.18;98261.39;612085;232;65038;-70
2022/12/18 12:00:19;;;;;;;;;;;;;;;26.38;55.66;98273.48;612112;232;64779;-67
2022/12/18 12:02:58;;;;;;;;;;;;;;;26.37;54.87;98271.88;612162;232;64965;-69
2022/12/18 12:05:27;;;;;;;;;;;;;;;26.38;56.82;98278.08;603231;235;64524;-68
2022/12/18 12:08:11;;;;;;;;;;;;;;;26.37;52.25;98281.86;603356;235;66930;-72
2022/12/18 12:10:43;;;;;;;;;;;;;;;26.37;54.12;98282.66;584072;242;63034;-69
2022/12/18 12:13:21;;;;;;;;;;;;;;;26.37;53.52;98279.17;597453;235;67474;-69
2022/12/18 12:16:05;;;;;;;;;;;;;;;26.37;52.86;98271.08;603283;235;66992;-73
2022/12/18 12:18:51;;;;;;;;;;;;;;;26.37;54.49;98276.47;603203;235;63221;-70
2022/12/18 12:21:36;;;;;;;;;;;;;;;26.37;55.05;98265.69;603300;235;67062;-70
2022/12/18 12:24:14;;;;;;;;;;;;;;;26.37;55.76;98260.30;603165;235;65959;-72
2022/12/18 12:26:52;;;;;;;;;;;;;;;26.37;56.11;98265.69;603277;235;65280;-70
2022/12/18 12:29:30;;;;;;;;;;;;;;;26.36;54.53;98264.89;602245;234;67080;-67
2022/12/18 12:32:08;;;;;;;;;;;;;;;26.37;56.25;98271.08;602143;235;64590;-68
2022/12/18 12:34:37;;;;;;;;;;;;;;;26.34;55.85;98278.63;601957;235;65256;-71
2022/12/18 12:37:09;;;;;;;;;;;;;;;26.34;53.63;98273.23;604662;233;66934;-66
2022/12/18 12:39:38;;;;;;;;;;;;;;;26.35;55.39;98280.27;608140;232;66823;-71
2022/12/18 12:44:54;;;;;;;;;;;;;;;26.34;54.68;98275.94;601945;235;64658;-71
2022/12/18 12:47:29;;;;;;;;;;;;;;;26.36;53.41;98270.28;602139;235;64569;-71
2022/12/18 12:49:58;;;;;;;;;;;;;;;26.37;52.39;98279.97;607815;232;65346;-69
2022/12/18 12:52:30;;;;;;;;;;;;;;;26.37;52.97;98271.08;608857;233;64624;-66
2022/12/18 12:54:58;;;;;;;;;;;;;;;26.39;51.98;98275.12;608865;233;66482;-66
2022/12/18 12:57:28;;;;;;;;;;;;;;;26.38;54.36;98286.96;608824;233;64867;-71
2022/12/18 12:59:59;;;;;;;;;;;;;;;26.39;53.48;98290.48;608768;231;67002;-75
2022/12/18 13:02:31;;;;;;;;;;;;;;;26.39;52.71;98290.48;608813;233;64844;-72
2022/12/18 13:05:01;;;;;;;;;;;;;;;26.40;54.54;98292.09;608891;233;65114;-68
2022/12/18 13:07:38;;;;;;;;;;;;;;;26.40;52.96;98305.56;608714;232;64372;-66
2022/12/18 13:10:16;;;;;;;;;;;;;;;26.39;53.65;98303.96;608843;233;68919;-71